Terminal Aerodrome Forecast
Issued by NWS Spokane, WA

Home | Current Version | Previous Version | Text Only | Print | Product List | Glossary On
Versions: 1 2 3 4 5 6 7 8 9 10 11 12 13 14 15 16 17 18 19 20 21 22 23 24
000
FTUS46 KOTX 310520
TAFGEG
TAF
KGEG 310520Z 3106/0106 21011KT P6SM SCT060 BKN100
     FM311100 20010KT P6SM SCT015 BKN070
     FM311700 22011KT P6SM SCT035 BKN060
     FM312000 23011G17KT P6SM SCT050 BKN090
     FM010300 21010KT P6SM SCT070 SCT150=

USA.gov is the U.S. government's official web portal to all federal, state and local government web resources and services.